Time;durP1;ratioP1;P1;durP2;ratioP2;P2;SDS_P1;SDS_P2;PMS_P1;PMS_P2;Temp;Humidity;BMP_temperature;BMP_pressure;BME280_temperature;BME280_humidity;BME280_pressure;Samples;Min_cycle;Max_cycle;Signal;HPM_P1;HPM_P2
2020/08/11 00:00:00;;;;;;;1.2;0.9;;;;;;;19.23;84.31348;939.4358;;;;
2020/08/11 00:02:25;;;;;;;1;0.8;;;;;;;19.24;84.38672;939.4469;;;;
2020/08/11 00:04:50;;;;;;;3;1;;;;;;;19.35;83.5791;939.4147;;;;
2020/08/11 00:07:16;;;;;;;4.7;0.9;;;;;;;19.31;83.16406;939.3887;;;;
2020/08/11 00:09:41;;;;;;;1.1;0.9;;;;;;;19.31;83.37402;939.3654;;;;
2020/08/11 00:12:06;;;;;;;3.6;1.4;;;;;;;19.27;82.75;939.3591;;;;
2020/08/11 00:14:31;;;;;;;1.2;0.8;;;;;;;19.18;82.89551;939.3792;;;;
2020/08/11 00:16:56;;;;;;;2.1;1.2;;;;;;;19.14;82.78223;939.3488;;;;
2020/08/11 00:19:21;;;;;;;2;1.2;;;;;;;19.15;82.57617;939.3758;;;;
2020/08/11 00:21:46;;;;;;;0.9;0.7;;;;;;;19.07;83.58594;939.4083;;;;
2020/08/11 00:24:12;;;;;;;1.8;0.9;;;;;;;18.95;84.43652;939.4146;;;;
2020/08/11 00:26:37;;;;;;;1.8;1.1;;;;;;;19.09;83.54102;939.4766;;;;
2020/08/11 00:29:02;;;;;;;1.4;0.8;;;;;;;18.97;83.60059;939.4522;;;;
2020/08/11 00:31:30;;;;;;;0.9;0.7;;;;;;;18.77;83.82031;939.4219;;;;
2020/08/11 00:33:55;;;;;;;0.9;0.8;;;;;;;18.69;84.03613;939.3592;;;;
2020/08/11 00:36:20;;;;;;;2.9;1.4;;;;;;;18.73;83.73047;939.3649;;;;
2020/08/11 00:38:45;;;;;;;3.6;0.8;;;;;;;18.77;83.25977;939.3624;;;;
2020/08/11 00:41:10;;;;;;;1.6;0.9;;;;;;;18.78;83.51953;939.3734;;;;
2020/08/11 00:43:35;;;;;;;4.4;1.7;;;;;;;18.75;84.17383;939.3411;;;;
2020/08/11 00:46:04;;;;;;;1.5;0.8;;;;;;;18.57;84.12988;939.3649;;;;
2020/08/11 00:48:29;;;;;;;1.2;0.9;;;;;;;18.55;83.19727;939.3402;;;;
2020/08/11 00:50:55;;;;;;;1.2;0.9;;;;;;;18.63;83.2793;939.4202;;;;
2020/08/11 00:53:20;;;;;;;1.6;1.1;;;;;;;18.56;83.76758;939.4183;;;;
2020/08/11 00:55:46;;;;;;;2;1.4;;;;;;;18.68;81.33691;939.3318;;;;
2020/08/11 00:58:11;;;;;;;1.6;0.8;;;;;;;18.76;82.68848;939.3658;;;;
2020/08/11 01:00:45;;;;;;;1.4;1.1;;;;;;;18.77;83.08594;939.4325;;;;
2020/08/11 01:03:10;;;;;;;1;0.9;;;;;;;18.74;83.44141;939.4606;;;;
2020/08/11 01:05:44;;;;;;;2.7;1.2;;;;;;;18.81;83.45508;939.5003;;;;
2020/08/11 01:08:10;;;;;;;1.6;1.2;;;;;;;18.86;82.87012;939.5433;;;;
2020/08/11 01:10:36;;;;;;;3.7;1.3;;;;;;;18.72;83.59863;939.5804;;;;
2020/08/11 01:13:05;;;;;;;3.6;1.2;;;;;;;18.6;84.2627;939.6105;;;;
2020/08/11 01:15:37;;;;;;;2.1;1.1;;;;;;;18.58;84.44531;939.589;;;;
2020/08/11 01:18:05;;;;;;;1.1;0.8;;;;;;;18.55;84.74219;939.65;;;;
2020/08/11 01:20:30;;;;;;;2.6;1;;;;;;;18.55;84.26563;939.6057;;;;
2020/08/11 01:22:57;;;;;;;1;0.8;;;;;;;18.51;83.32813;939.6216;;;;
2020/08/11 01:25:28;;;;;;;5.4;0.8;;;;;;;18.45;83.28125;939.5858;;;;
2020/08/11 01:27:56;;;;;;;1.7;1;;;;;;;18.35;82.2168;939.5075;;;;
2020/08/11 01:30:27;;;;;;;2.1;1.2;;;;;;;18.46;82.42285;939.5469;;;;
2020/08/11 01:32:53;;;;;;;1.7;1.1;;;;;;;18.61;82.18262;939.632;;;;
2020/08/11 01:35:18;;;;;;;2;1.4;;;;;;;18.56;83.03516;939.6313;;;;
2020/08/11 01:37:43;;;;;;;1.3;1;;;;;;;18.45;83.5127;939.7092;;;;
2020/08/11 01:40:08;;;;;;;1.9;0.8;;;;;;;18.35;84.2041;939.7219;;;;
2020/08/11 01:42:46;;;;;;;2;1.1;;;;;;;18.35;83.00684;939.709;;;;
2020/08/11 01:45:26;;;;;;;1.4;1;;;;;;;18.36;80.77539;939.676;;;;
2020/08/11 01:47:54;;;;;;;1.2;0.9;;;;;;;18.53;81.88965;939.7149;;;;
2020/08/11 01:50:19;;;;;;;3.6;1.1;;;;;;;18.52;82.17871;939.8262;;;;
2020/08/11 01:52:45;;;;;;;1.3;0.7;;;;;;;18.62;81.50977;939.8181;;;;
2020/08/11 01:55:10;;;;;;;1;0.8;;;;;;;18.54;82.93652;939.7784;;;;
2020/08/11 01:57:35;;;;;;;2.1;1;;;;;;;18.5;82.33691;939.7606;;;;
2020/08/11 02:00:00;;;;;;;1.2;1;;;;;;;18.39;83.03711;939.759;;;;
2020/08/11 02:02:27;;;;;;;0.9;0.8;;;;;;;18.43;82.92773;939.7087;;;;
2020/08/11 02:04:52;;;;;;;1.9;1;;;;;;;18.48;82.28711;939.6206;;;;
2020/08/11 02:07:17;;;;;;;1.2;0.9;;;;;;;18.33;83.23438;939.707;;;;
2020/08/11 02:09:42;;;;;;;1.9;1;;;;;;;18.13;85.18359;939.678;;;;
2020/08/11 02:12:07;;;;;;;0.9;0.7;;;;;;;18.21;84.33789;939.5937;;;;
2020/08/11 02:14:32;;;;;;;4.5;1;;;;;;;18.15;85.19922;939.6292;;;;
2020/08/11 02:16:58;;;;;;;1.2;0.9;;;;;;;18.16;84.92188;939.6485;;;;
2020/08/11 02:19:23;;;;;;;3.3;1.2;;;;;;;18.14;83.33789;939.5055;;;;
2020/08/11 02:21:48;;;;;;;1.4;1;;;;;;;18.27;83.70117;939.6234;;;;
2020/08/11 02:24:13;;;;;;;3.3;1.2;;;;;;;18.22;83.3418;939.6467;;;;
2020/08/11 02:26:38;;;;;;;1.4;1;;;;;;;18.1;83.64453;939.652;;;;
2020/08/11 02:29:03;;;;;;;0.9;0.6;;;;;;;18.12;81.69629;939.6114;;;;
2020/08/11 02:31:30;;;;;;;1;0.8;;;;;;;18.08;83.80273;939.6266;;;;
2020/08/11 02:33:55;;;;;;;0.8;0.7;;;;;;;18.11;83.9375;939.6445;;;;
2020/08/11 02:36:20;;;;;;;2.7;0.9;;;;;;;18.13;80.38574;939.5901;;;;
2020/08/11 02:38:45;;;;;;;0.7;0.6;;;;;;;18.29;81.5293;939.6369;;;;
2020/08/11 02:41:17;;;;;;;0.7;0.6;;;;;;;18.4;80.8418;939.6308;;;;
2020/08/11 02:43:42;;;;;;;1.3;0.7;;;;;;;18.35;80.15723;939.6761;;;;
2020/08/11 02:46:07;;;;;;;0.7;0.7;;;;;;;18.38;78.49023;939.5908;;;;
2020/08/11 02:48:32;;;;;;;1.5;0.8;;;;;;;18.25;78.80469;939.6223;;;;
2020/08/11 02:50:57;;;;;;;2;0.8;;;;;;;18.33;79.96973;939.6255;;;;
2020/08/11 02:53:22;;;;;;;1.2;0.6;;;;;;;18.31;80.61621;939.5857;;;;
2020/08/11 02:55:47;;;;;;;2.1;1;;;;;;;18.26;81.33984;939.589;;;;
2020/08/11 02:58:12;;;;;;;3.8;0.9;;;;;;;18.21;81.4707;939.5798;;;;
2020/08/11 03:00:37;;;;;;;1.5;0.8;;;;;;;18.18;81.74121;939.5265;;;;
2020/08/11 03:03:03;;;;;;;2.6;1.1;;;;;;;18.17;81.91406;939.525;;;;
2020/08/11 03:05:30;;;;;;;2.8;1;;;;;;;18.16;82.03027;939.5002;;;;
2020/08/11 03:07:55;;;;;;;1.6;1.1;;;;;;;18.08;82.21289;939.5781;;;;
2020/08/11 03:10:20;;;;;;;2.2;1.2;;;;;;;18.13;81.7793;939.4854;;;;
2020/08/11 03:12:45;;;;;;;1.8;1.3;;;;;;;18.06;82;939.6277;;;;
2020/08/11 03:15:11;;;;;;;3.4;1.8;;;;;;;18.05;82.31055;939.6046;;;;
2020/08/11 03:17:36;;;;;;;1;0.9;;;;;;;18.04;82.3457;939.5739;;;;
2020/08/11 03:20:01;;;;;;;1.1;0.8;;;;;;;18.02;82.76953;939.5494;;;;
2020/08/11 03:22:26;;;;;;;1.6;1.1;;;;;;;18.13;82.44141;939.5853;;;;
2020/08/11 03:24:51;;;;;;;1.2;0.9;;;;;;;18.14;81.98047;939.6682;;;;
2020/08/11 03:27:16;;;;;;;1.1;1;;;;;;;18.12;82.30078;939.6581;;;;
2020/08/11 03:29:42;;;;;;;2.3;1.5;;;;;;;18.13;81.87207;939.6611;;;;
2020/08/11 03:32:07;;;;;;;2.5;1;;;;;;;18.12;81.1875;939.6637;;;;
2020/08/11 03:34:32;;;;;;;4.3;1.5;;;;;;;18.06;81.17383;939.7365;;;;
2020/08/11 03:36:57;;;;;;;2.4;1.1;;;;;;;17.87;81.70801;939.7346;;;;
2020/08/11 03:39:22;;;;;;;2.2;1.5;;;;;;;17.85;82.28516;939.7502;;;;
2020/08/11 03:41:47;;;;;;;7.3;1.8;;;;;;;17.89;81.85059;939.7794;;;;
2020/08/11 03:44:13;;;;;;;7.9;1.4;;;;;;;17.94;82.17578;939.7341;;;;
2020/08/11 03:46:38;;;;;;;3.1;0.9;;;;;;;17.92;82.27539;939.84;;;;
2020/08/11 03:49:03;;;;;;;2.9;1.3;;;;;;;17.98;82.26367;939.872;;;;
2020/08/11 03:51:28;;;;;;;1.7;1.2;;;;;;;17.92;82.55371;939.8552;;;;
2020/08/11 03:53:56;;;;;;;2.1;1.2;;;;;;;18.02;82.06152;939.9135;;;;
2020/08/11 03:56:22;;;;;;;3.4;1.5;;;;;;;18.01;81.68945;939.9594;;;;
2020/08/11 03:58:47;;;;;;;7;1.6;;;;;;;18.03;81.98145;939.9941;;;;
2020/08/11 04:02:31;;;;;;;2.5;1.2;;;;;;;17.87;82.06934;939.9157;;;;
2020/08/11 04:04:56;;;;;;;2;1.2;;;;;;;17.7;82.66406;939.9012;;;;
2020/08/11 04:07:24;;;;;;;4.9;1.5;;;;;;;17.61;83.19043;939.9922;;;;
2020/08/11 04:09:51;;;;;;;1.5;1.1;;;;;;;17.7;83.34863;940.0325;;;;
2020/08/11 04:12:27;;;;;;;1.6;1.3;;;;;;;17.77;82.79199;939.9976;;;;
2020/08/11 04:14:55;;;;;;;4.6;1.5;;;;;;;17.65;83.25781;939.9814;;;;
2020/08/11 04:17:23;;;;;;;4.5;1.2;;;;;;;17.64;83.03516;940.0733;;;;
2020/08/11 04:19:48;;;;;;;2.8;1.3;;;;;;;17.76;83.04785;940.0331;;;;
2020/08/11 04:22:13;;;;;;;2.9;1.2;;;;;;;17.89;83.07129;940.0168;;;;
2020/08/11 04:24:39;;;;;;;4.5;1.5;;;;;;;17.95;82.09473;940.1287;;;;
2020/08/11 04:27:04;;;;;;;2;1.5;;;;;;;17.85;81.25195;940.1554;;;;
2020/08/11 04:29:29;;;;;;;1.5;0.9;;;;;;;17.75;81.81348;940.2275;;;;
2020/08/11 04:31:54;;;;;;;8.2;1.5;;;;;;;17.7;82.25781;940.2516;;;;
2020/08/11 04:34:19;;;;;;;2.4;1.3;;;;;;;17.81;82.45215;940.2097;;;;
2020/08/11 04:36:50;;;;;;;2.1;1.2;;;;;;;17.89;82.14258;940.1522;;;;
2020/08/11 04:39:15;;;;;;;2.8;1.1;;;;;;;17.86;82.1123;940.0908;;;;
2020/08/11 04:41:52;;;;;;;1.1;1;;;;;;;17.83;81.63086;940.0719;;;;
2020/08/11 04:44:19;;;;;;;1.6;1.1;;;;;;;17.75;82.47559;940.1043;;;;
2020/08/11 04:46:49;;;;;;;3.2;1;;;;;;;17.81;82.0459;940.1122;;;;
2020/08/11 04:49:16;;;;;;;2.1;1.3;;;;;;;17.73;82.51855;940.0087;;;;
2020/08/11 04:51:41;;;;;;;2;0.9;;;;;;;17.79;81.57813;940.0505;;;;
2020/08/11 04:54:06;;;;;;;0.9;0.8;;;;;;;17.84;81.97168;940.0225;;;;
2020/08/11 04:56:31;;;;;;;1.7;1.1;;;;;;;17.93;82.04492;940.055;;;;
2020/08/11 04:58:56;;;;;;;3.6;1.2;;;;;;;17.97;81.47266;940.072;;;;
2020/08/11 05:01:26;;;;;;;1.1;0.8;;;;;;;17.9;81.08691;940.0667;;;;
2020/08/11 05:03:52;;;;;;;1.7;1;;;;;;;18.07;81.36328;940.0917;;;;
2020/08/11 05:06:17;;;;;;;1.2;0.8;;;;;;;18.07;79.77148;940.0707;;;;
2020/08/11 05:08:46;;;;;;;1.3;0.8;;;;;;;18.16;79.56738;940.0869;;;;
2020/08/11 05:11:15;;;;;;;1.1;0.9;;;;;;;18.21;79.36621;939.9838;;;;
2020/08/11 05:13:40;;;;;;;1.6;1.1;;;;;;;18.26;79.97852;940.0438;;;;
2020/08/11 05:16:05;;;;;;;1.6;1;;;;;;;18.42;77.74219;940.0097;;;;
2020/08/11 05:18:30;;;;;;;0.9;0.7;;;;;;;18.36;78.35742;939.9314;;;;
2020/08/11 05:20:56;;;;;;;0.7;0.5;;;;;;;18.52;78.75879;940.0184;;;;
2020/08/11 05:23:21;;;;;;;1.7;0.9;;;;;;;18.6;77.86621;940.0209;;;;
2020/08/11 05:25:46;;;;;;;2.4;0.8;;;;;;;18.69;76.40625;940.0117;;;;
2020/08/11 05:28:11;;;;;;;1.8;0.8;;;;;;;18.78;77.16602;940.0269;;;;
2020/08/11 05:30:37;;;;;;;2.3;1;;;;;;;18.82;75.57715;940.0536;;;;
2020/08/11 05:33:04;;;;;;;4.9;1.1;;;;;;;19.07;75.87793;940.1008;;;;
2020/08/11 05:35:29;;;;;;;0.8;0.5;;;;;;;19.67;74.16211;940.1231;;;;
2020/08/11 05:37:59;;;;;;;1.3;0.7;;;;;;;20.64;69.54688;940.0396;;;;
2020/08/11 05:40:23;;;;;;;1.4;1;;;;;;;21.5;67.11621;939.9974;;;;
2020/08/11 05:42:49;;;;;;;2.7;0.8;;;;;;;22.11;64.20703;940.0048;;;;
2020/08/11 05:45:14;;;;;;;0.9;0.7;;;;;;;22.73;61.33984;939.9896;;;;
2020/08/11 05:47:39;;;;;;;0.3;0.3;;;;;;;22.93;60.05078;940.0062;;;;
2020/08/11 05:50:04;;;;;;;0.8;0.4;;;;;;;22.87;59.67871;939.9325;;;;
2020/08/11 05:52:30;;;;;;;0.4;0.4;;;;;;;23.06;59.9873;939.9755;;;;
2020/08/11 05:54:56;;;;;;;0.5;0.5;;;;;;;23.76;59.45801;940.0131;;;;
2020/08/11 05:57:22;;;;;;;4.9;1;;;;;;;24.43;55.35156;940.0156;;;;
2020/08/11 05:59:47;;;;;;;0.7;0.4;;;;;;;25.06;56.16016;939.9827;;;;
2020/08/11 06:02:12;;;;;;;0.6;0.5;;;;;;;25.9;54.18652;940.0401;;;;
2020/08/11 06:04:42;;;;;;;0.3;0.3;;;;;;;26.65;51.2334;940.0022;;;;
2020/08/11 06:07:07;;;;;;;0.3;0.2;;;;;;;27.18;49.51563;939.9894;;;;
2020/08/11 06:09:32;;;;;;;0.5;0.4;;;;;;;27.05;47.02344;939.9866;;;;
2020/08/11 06:12:05;;;;;;;0.2;0.2;;;;;;;26.57;50.77441;939.9756;;;;
2020/08/11 06:14:30;;;;;;;0.6;0.5;;;;;;;26.58;49.27148;940.0108;;;;
2020/08/11 06:16:55;;;;;;;0.8;0.4;;;;;;;26.87;48.33105;939.9944;;;;
2020/08/11 06:19:20;;;;;;;1.3;0.6;;;;;;;26.79;49.23438;940.0179;;;;
2020/08/11 06:21:45;;;;;;;2.5;0.6;;;;;;;26.95;49.77539;940.0433;;;;
2020/08/11 06:24:11;;;;;;;0.9;0.4;;;;;;;27.17;47.97168;940.0334;;;;
2020/08/11 06:26:36;;;;;;;3;0.7;;;;;;;27.44;46.49512;940.087;;;;
2020/08/11 06:29:01;;;;;;;0.7;0.4;;;;;;;27.78;46.31641;940.0744;;;;
2020/08/11 06:31:27;;;;;;;1.2;0.5;;;;;;;27.71;47.65039;940.0279;;;;
2020/08/11 06:33:52;;;;;;;0.8;0.5;;;;;;;28.56;45.46875;940.0466;;;;
2020/08/11 06:36:17;;;;;;;0.6;0.3;;;;;;;28.96;44.99707;939.9955;;;;
2020/08/11 06:38:44;;;;;;;1.6;1.1;;;;;;;30.16;42.87305;940.009;;;;
2020/08/11 06:41:10;;;;;;;0.8;0.6;;;;;;;29.79;44.20898;940.053;;;;
2020/08/11 06:43:36;;;;;;;2.1;0.3;;;;;;;29.78;45.0918;940.0517;;;;
2020/08/11 06:46:01;;;;;;;0.9;0.4;;;;;;;29.8;44.52051;939.9936;;;;
2020/08/11 06:48:26;;;;;;;1.1;0.6;;;;;;;29.8;44.16309;940.0232;;;;
2020/08/11 06:50:52;;;;;;;0.4;0.3;;;;;;;30.6;41.98242;939.9867;;;;
2020/08/11 06:53:16;;;;;;;1.7;0.6;;;;;;;30.94;39.86133;940.0439;;;;
2020/08/11 06:55:42;;;;;;;1.6;0.7;;;;;;;31.08;40.06641;940.0527;;;;
2020/08/11 06:58:07;;;;;;;0.4;0.4;;;;;;;30.66;42.52637;940.0136;;;;
2020/08/11 07:00:40;;;;;;;0.2;0.2;;;;;;;30.58;42.16016;939.9933;;;;
2020/08/11 07:03:05;;;;;;;1.3;0.5;;;;;;;30.1;42.87891;940.0347;;;;
2020/08/11 07:05:30;;;;;;;1.2;0.5;;;;;;;30.25;43.39551;940.0305;;;;
2020/08/11 07:07:55;;;;;;;0.4;0.4;;;;;;;30.17;44.04297;939.9667;;;;
2020/08/11 07:10:27;;;;;;;0.7;0.3;;;;;;;30.09;45.70703;939.9348;;;;
2020/08/11 07:12:52;;;;;;;0.4;0.4;;;;;;;30.64;42.93066;939.918;;;;
2020/08/11 07:15:29;;;;;;;2.3;0.7;;;;;;;30.5;42.47559;939.8544;;;;
2020/08/11 07:17:54;;;;;;;0.2;0.2;;;;;;;31.64;39.79297;939.9006;;;;
2020/08/11 07:20:22;;;;;;;0.9;0.4;;;;;;;32.61;37.83691;939.9012;;;;
2020/08/11 07:22:47;;;;;;;0.7;0.4;;;;;;;32.58;37.7627;939.946;;;;
2020/08/11 07:25:14;;;;;;;12.1;1;;;;;;;33.05;37.26172;939.8853;;;;
2020/08/11 07:27:38;;;;;;;1.1;0.7;;;;;;;33.29;36.98047;939.8446;;;;
2020/08/11 07:30:03;;;;;;;0.5;0.5;;;;;;;33.67;35.80859;939.889;;;;
2020/08/11 07:32:28;;;;;;;2.3;0.8;;;;;;;33.57;35.86133;939.9047;;;;
2020/08/11 07:34:54;;;;;;;0.5;0.4;;;;;;;34.53;34.63477;939.8306;;;;
2020/08/11 07:37:19;;;;;;;0.8;0.4;;;;;;;34.54;34.74316;939.8314;;;;
2020/08/11 07:39:44;;;;;;;0.3;0.2;;;;;;;34.65;32.07617;939.8109;;;;
2020/08/11 07:42:09;;;;;;;0.9;0.5;;;;;;;34.46;34.56836;939.8006;;;;
2020/08/11 07:44:34;;;;;;;0.4;0.3;;;;;;;34;35.38867;939.7766;;;;
2020/08/11 07:47:02;;;;;;;3.7;0.5;;;;;;;34.82;34.17383;939.7992;;;;
2020/08/11 07:49:28;;;;;;;0.4;0.3;;;;;;;35.02;32.77832;939.8159;;;;
2020/08/11 07:51:54;;;;;;;2;0.3;;;;;;;35.88;31.76367;939.8043;;;;
2020/08/11 07:54:19;;;;;;;1.5;0.6;;;;;;;36.08;30.49609;939.7647;;;;
2020/08/11 07:56:45;;;;;;;0.3;0.3;;;;;;;36.34;28.65039;939.7636;;;;
2020/08/11 07:59:10;;;;;;;0.7;0.3;;;;;;;36.24;29.4541;939.7341;;;;
2020/08/11 08:01:37;;;;;;;0.4;0.4;;;;;;;36.76;29.71777;939.6834;;;;
2020/08/11 08:04:02;;;;;;;0.2;0.2;;;;;;;36.87;29.10742;939.7324;;;;
2020/08/11 08:06:27;;;;;;;0.7;0.4;;;;;;;37.48;28.1875;939.7111;;;;
2020/08/11 08:08:53;;;;;;;0.2;0.2;;;;;;;37.7;28.70996;939.6878;;;;
2020/08/11 08:11:18;;;;;;;5.5;0.5;;;;;;;38.77;26.56348;939.6578;;;;
2020/08/11 08:13:43;;;;;;;19;1;;;;;;;38.93;25.16211;939.6863;;;;
2020/08/11 08:16:08;;;;;;;0.9;0.6;;;;;;;38.57;26.19922;939.6652;;;;
2020/08/11 08:18:33;;;;;;;0.5;0.3;;;;;;;39.4;25.24805;939.673;;;;
2020/08/11 08:20:58;;;;;;;0.2;0.2;;;;;;;39.81;26.00195;939.6403;;;;
2020/08/11 08:23:24;;;;;;;1.2;0.4;;;;;;;37.91;25.19141;939.5938;;;;
2020/08/11 08:25:49;;;;;;;0.5;0.4;;;;;;;37.49;26.59863;939.5661;;;;
2020/08/11 08:28:15;;;;;;;0.5;0.5;;;;;;;38.04;25.8418;939.5327;;;;
2020/08/11 08:30:45;;;;;;;0.5;0.3;;;;;;;37.41;26.83691;939.594;;;;
2020/08/11 08:33:10;;;;;;;0.9;0.4;;;;;;;38.16;28.16797;939.5577;;;;
2020/08/11 08:35:35;;;;;;;0.6;0.4;;;;;;;38.88;26.2666;939.5314;;;;
2020/08/11 08:38:01;;;;;;;0.3;0.3;;;;;;;39.83;24.29688;939.5449;;;;
2020/08/11 08:40:26;;;;;;;6.8;0.5;;;;;;;39.25;24.36328;939.5186;;;;
2020/08/11 08:42:51;;;;;;;0.8;0.4;;;;;;;38.93;25.125;939.4968;;;;
2020/08/11 08:45:16;;;;;;;1.5;0.7;;;;;;;39.46;26.76172;939.4825;;;;
2020/08/11 08:47:41;;;;;;;0.2;0.2;;;;;;;39.38;25.06445;939.4595;;;;
2020/08/11 08:50:06;;;;;;;0.6;0.5;;;;;;;39.95;24.80273;939.4881;;;;
2020/08/11 08:52:32;;;;;;;0.3;0.3;;;;;;;40.48;25.64941;939.5106;;;;
2020/08/11 08:54:57;;;;;;;0.5;0.4;;;;;;;40.86;23.83691;939.5005;;;;
2020/08/11 08:57:22;;;;;;;0.4;0.2;;;;;;;40.48;24.86719;939.5178;;;;
2020/08/11 08:59:48;;;;;;;0.5;0.5;;;;;;;40.8;25.54492;939.4864;;;;
2020/08/11 09:02:13;;;;;;;0.3;0.3;;;;;;;40.02;23.64746;939.5023;;;;
2020/08/11 09:04:40;;;;;;;4.5;0.9;;;;;;;40.21;24.03613;939.4567;;;;
2020/08/11 09:07:06;;;;;;;0.3;0.3;;;;;;;40.65;23.38672;939.4731;;;;
2020/08/11 09:09:31;;;;;;;0.7;0.6;;;;;;;40.48;25.60059;939.4705;;;;
2020/08/11 09:11:56;;;;;;;0.4;0.2;;;;;;;40.04;25.70996;939.4456;;;;
2020/08/11 09:14:21;;;;;;;0.5;0.2;;;;;;;39.45;26.93164;939.4449;;;;
2020/08/11 09:16:49;;;;;;;2.3;0.4;;;;;;;39.26;23.02441;939.4553;;;;
2020/08/11 09:19:15;;;;;;;0.9;0.5;;;;;;;38.18;27.61035;939.4023;;;;
2020/08/11 09:21:40;;;;;;;1.1;0.5;;;;;;;37.65;28.17383;939.4306;;;;
2020/08/11 09:24:05;;;;;;;0.4;0.3;;;;;;;37.44;27.09375;939.443;;;;
2020/08/11 09:26:31;;;;;;;0.8;0.6;;;;;;;37.07;27.72656;939.4674;;;;
2020/08/11 09:28:56;;;;;;;0.4;0.3;;;;;;;36.12;29.90527;939.4397;;;;
2020/08/11 09:31:24;;;;;;;2.2;0.9;;;;;;;35.19;35.01074;939.4283;;;;
2020/08/11 09:33:49;;;;;;;0.6;0.6;;;;;;;34.66;36.25977;939.4119;;;;
2020/08/11 09:36:14;;;;;;;0.4;0.4;;;;;;;34.19;35.6084;939.4529;;;;
2020/08/11 09:38:39;;;;;;;0.4;0.4;;;;;;;33.61;38.3418;939.4641;;;;
2020/08/11 09:41:14;;;;;;;0.7;0.6;;;;;;;33.64;39.16113;939.4081;;;;
2020/08/11 09:43:39;;;;;;;2.9;0.9;;;;;;;33.37;39.7998;939.4363;;;;
2020/08/11 09:46:07;;;;;;;0.9;0.6;;;;;;;33.34;39.14746;939.3978;;;;
2020/08/11 09:48:32;;;;;;;0.7;0.6;;;;;;;33.36;39.52148;939.4844;;;;
2020/08/11 09:50:57;;;;;;;0.8;0.5;;;;;;;33.47;39.50781;939.4412;;;;
2020/08/11 09:53:22;;;;;;;0.5;0.5;;;;;;;33.53;37.25195;939.4153;;;;
2020/08/11 09:55:47;;;;;;;4.4;0.8;;;;;;;33.55;39.81543;939.4012;;;;
2020/08/11 09:58:13;;;;;;;2.2;0.7;;;;;;;33.83;39.81543;939.4091;;;;
2020/08/11 10:00:45;;;;;;;1.3;0.7;;;;;;;33.79;33.08594;939.3653;;;;
2020/08/11 10:03:10;;;;;;;0.5;0.5;;;;;;;33.94;33.48242;939.3349;;;;
2020/08/11 10:05:35;;;;;;;0.3;0.3;;;;;;;34.28;33.33887;939.33;;;;
2020/08/11 10:08:00;;;;;;;1.1;1;;;;;;;34.51;35.04199;939.315;;;;
2020/08/11 10:10:27;;;;;;;2.5;0.9;;;;;;;34.31;36.81055;939.2706;;;;
2020/08/11 10:12:54;;;;;;;0.8;0.5;;;;;;;34.64;35.0293;939.3107;;;;
2020/08/11 10:15:27;;;;;;;0.7;0.6;;;;;;;34.54;36.47949;939.2873;;;;
2020/08/11 10:17:53;;;;;;;1.6;0.6;;;;;;;34.85;36.84082;939.2322;;;;
2020/08/11 10:20:23;;;;;;;0.5;0.4;;;;;;;34.87;36.12012;939.2593;;;;
2020/08/11 10:22:52;;;;;;;3.4;0.9;;;;;;;35;35.99707;939.2419;;;;
2020/08/11 10:25:23;;;;;;;14.7;0.9;;;;;;;34.92;35.12305;939.2506;;;;
2020/08/11 10:27:48;;;;;;;1.7;0.7;;;;;;;35.46;35.58691;939.2558;;;;
2020/08/11 10:30:14;;;;;;;3.1;0.9;;;;;;;36;33.30762;939.2514;;;;
2020/08/11 10:32:39;;;;;;;1.3;0.9;;;;;;;36.55;30.95117;939.2235;;;;
2020/08/11 10:35:04;;;;;;;0.9;0.6;;;;;;;37.32;29.42676;939.2403;;;;
2020/08/11 10:37:29;;;;;;;1.3;0.7;;;;;;;37.14;33.01465;939.2039;;;;
2020/08/11 10:39:54;;;;;;;3.8;0.8;;;;;;;36.89;33.46875;939.2383;;;;
2020/08/11 10:42:19;;;;;;;0.7;0.6;;;;;;;37.11;32.50293;939.2338;;;;
2020/08/11 10:44:47;;;;;;;0.8;0.8;;;;;;;37.01;32.07324;939.2736;;;;
2020/08/11 10:47:15;;;;;;;1.5;0.7;;;;;;;37.39;32.40234;939.2249;;;;
2020/08/11 10:49:41;;;;;;;0.7;0.6;;;;;;;37.79;31.79883;939.2709;;;;
2020/08/11 10:52:06;;;;;;;1.1;1;;;;;;;38.09;31.64941;939.2612;;;;
2020/08/11 10:54:31;;;;;;;1.2;0.9;;;;;;;38.2;31.24414;939.1985;;;;
2020/08/11 10:56:56;;;;;;;0.7;0.6;;;;;;;38.72;29.90527;939.2842;;;;
2020/08/11 10:59:21;;;;;;;0.5;0.4;;;;;;;38.77;30.57813;939.2458;;;;
2020/08/11 11:01:46;;;;;;;1.5;0.8;;;;;;;39.06;29.90332;939.21;;;;
2020/08/11 11:04:11;;;;;;;1.6;0.7;;;;;;;39.06;30.31738;939.2266;;;;
2020/08/11 11:06:37;;;;;;;1.4;0.8;;;;;;;39.01;30.19238;939.1632;;;;
2020/08/11 11:09:02;;;;;;;2.6;1.3;;;;;;;38.91;30.18555;939.1362;;;;
2020/08/11 11:11:29;;;;;;;0.7;0.6;;;;;;;38.77;30.43164;939.0999;;;;
2020/08/11 11:13:54;;;;;;;1.7;0.5;;;;;;;39.01;29.13379;939.1155;;;;
2020/08/11 11:16:24;;;;;;;1.5;1;;;;;;;39.04;29.37891;939.0856;;;;
2020/08/11 11:18:49;;;;;;;1.6;1;;;;;;;38.44;30.61719;939.0826;;;;
2020/08/11 11:21:14;;;;;;;0.9;0.7;;;;;;;37.42;30.75488;939.0707;;;;
2020/08/11 11:23:39;;;;;;;1.1;0.7;;;;;;;36.12;32.23926;939.0742;;;;
2020/08/11 11:26:10;;;;;;;0.5;0.5;;;;;;;35.62;33.59375;939.062;;;;
2020/08/11 11:28:35;;;;;;;5.7;0.8;;;;;;;35.3;35.10352;938.9905;;;;
2020/08/11 11:31:01;;;;;;;1.5;1;;;;;;;35.21;35.86914;938.9536;;;;
2020/08/11 11:33:26;;;;;;;6.7;1.1;;;;;;;35.36;35.56738;938.9977;;;;
2020/08/11 11:35:51;;;;;;;1.1;0.8;;;;;;;35.76;34.86133;938.9642;;;;
2020/08/11 11:38:16;;;;;;;5;0.8;;;;;;;36;33.51367;938.9077;;;;
2020/08/11 11:40:51;;;;;;;1.5;0.9;;;;;;;35.84;33.42871;938.9445;;;;
2020/08/11 11:43:16;;;;;;;1.7;1;;;;;;;35.36;36.60547;938.9099;;;;
2020/08/11 11:45:44;;;;;;;0.9;0.7;;;;;;;35.29;35.92383;938.8552;;;;
2020/08/11 11:48:09;;;;;;;2;0.8;;;;;;;35.33;36.46973;938.9305;;;;
2020/08/11 11:50:34;;;;;;;1.7;0.8;;;;;;;34.78;36.2334;938.9207;;;;
2020/08/11 11:52:59;;;;;;;2.2;1;;;;;;;34.02;37.44922;938.9147;;;;
2020/08/11 11:55:24;;;;;;;0.5;0.5;;;;;;;33.23;38.76563;938.9432;;;;
2020/08/11 11:57:50;;;;;;;3.8;1;;;;;;;32.49;39.23145;938.9742;;;;
2020/08/11 12:00:21;;;;;;;1.1;0.9;;;;;;;31.83;41.25781;938.8914;;;;
2020/08/11 12:02:47;;;;;;;1.5;0.9;;;;;;;31.49;43.49023;938.8501;;;;
2020/08/11 12:05:12;;;;;;;1.1;1;;;;;;;31.33;41.82324;938.9196;;;;
2020/08/11 12:07:37;;;;;;;1.9;1.2;;;;;;;31.02;43.0625;938.9071;;;;
2020/08/11 12:10:04;;;;;;;1.5;1.1;;;;;;;30.89;44.84277;938.8594;;;;
2020/08/11 12:12:29;;;;;;;1.2;0.9;;;;;;;31.23;45.77441;938.8208;;;;
2020/08/11 12:14:54;;;;;;;2.9;1.5;;;;;;;31.18;43.65234;938.7756;;;;
2020/08/11 12:17:19;;;;;;;1;0.8;;;;;;;31.23;43.25;938.7598;;;;
2020/08/11 12:19:44;;;;;;;1.5;1.1;;;;;;;31.46;43.29492;938.7238;;;;
2020/08/11 12:22:10;;;;;;;1.7;1.2;;;;;;;31.72;45.23633;938.7278;;;;
2020/08/11 12:24:35;;;;;;;1.5;1.1;;;;;;;31.96;43.85742;938.6744;;;;
2020/08/11 12:27:00;;;;;;;0.8;0.8;;;;;;;31.98;45.5625;938.7148;;;;
2020/08/11 12:29:25;;;;;;;1;0.7;;;;;;;32.21;42.25293;938.7146;;;;
2020/08/11 12:31:52;;;;;;;1.6;1;;;;;;;32.23;42.70996;938.6758;;;;
2020/08/11 12:34:23;;;;;;;0.6;0.6;;;;;;;32.33;42.38281;938.6372;;;;
2020/08/11 12:36:48;;;;;;;1.2;0.7;;;;;;;32.45;45.36816;938.5815;;;;
2020/08/11 12:39:16;;;;;;;1.5;0.9;;;;;;;32.56;44.37207;938.6301;;;;
2020/08/11 12:41:54;;;;;;;2.3;1.2;;;;;;;32.22;42.80469;938.6113;;;;
2020/08/11 12:44:20;;;;;;;1;0.7;;;;;;;32.29;43.23047;938.6041;;;;
2020/08/11 12:46:45;;;;;;;1.3;1;;;;;;;32.35;43.29688;938.5858;;;;
2020/08/11 12:49:10;;;;;;;1;0.9;;;;;;;32.33;42.10742;938.5439;;;;
2020/08/11 12:51:37;;;;;;;2.6;1.4;;;;;;;32.45;42.64746;938.5042;;;;
2020/08/11 12:54:02;;;;;;;1.4;1.1;;;;;;;32.44;41.7334;938.5879;;;;
2020/08/11 12:56:28;;;;;;;1.2;0.8;;;;;;;32.53;42.85742;938.548;;;;
2020/08/11 12:58:53;;;;;;;2;1;;;;;;;32.65;41.50098;938.5505;;;;
2020/08/11 13:01:23;;;;;;;2.1;1;;;;;;;32.66;42.83496;938.5371;;;;
2020/08/11 13:03:48;;;;;;;1.4;0.8;;;;;;;32.72;42.74414;938.4752;;;;
2020/08/11 13:06:15;;;;;;;1.2;1.1;;;;;;;32.62;41.83398;938.5008;;;;
2020/08/11 13:08:40;;;;;;;1.2;0.8;;;;;;;32.65;42.20898;938.4383;;;;
2020/08/11 13:11:09;;;;;;;3.5;1.5;;;;;;;32.3;40.10156;938.3879;;;;
2020/08/11 13:13:35;;;;;;;1.3;1;;;;;;;32.13;41.03418;938.4269;;;;
2020/08/11 13:16:05;;;;;;;1.3;1.1;;;;;;;32.06;40.83594;938.3784;;;;
2020/08/11 13:18:30;;;;;;;0.9;0.8;;;;;;;32.01;40.85449;938.4169;;;;
2020/08/11 13:20:59;;;;;;;0.8;0.8;;;;;;;31.45;42.7793;938.4361;;;;
2020/08/11 13:23:24;;;;;;;1.4;1.1;;;;;;;31.11;44.31445;938.3479;;;;
2020/08/11 13:25:51;;;;;;;1.7;1.2;;;;;;;30.82;44.80078;938.3975;;;;
2020/08/11 13:28:16;;;;;;;2.8;1.3;;;;;;;30.69;45.39648;938.4066;;;;
2020/08/11 13:30:50;;;;;;;3.8;1.1;;;;;;;30.33;44.73926;938.4008;;;;
2020/08/11 13:33:15;;;;;;;1.5;1;;;;;;;30.12;45.51855;938.3898;;;;
2020/08/11 13:35:46;;;;;;;1;0.6;;;;;;;29.97;45.95703;938.3549;;;;
2020/08/11 13:38:11;;;;;;;1.6;1.1;;;;;;;30.05;47.2666;938.3705;;;;
2020/08/11 13:40:44;;;;;;;2.3;1.4;;;;;;;29.84;48.19824;938.3971;;;;
2020/08/11 13:43:11;;;;;;;1.3;1;;;;;;;30.01;47.87012;938.3381;;;;
2020/08/11 13:45:41;;;;;;;1.2;0.8;;;;;;;29.89;46.72363;938.3416;;;;
2020/08/11 13:48:06;;;;;;;1.3;0.9;;;;;;;29.91;46.72656;938.3514;;;;
2020/08/11 13:50:32;;;;;;;1.1;0.9;;;;;;;30.03;48.1582;938.3387;;;;
2020/08/11 13:52:57;;;;;;;1.1;0.6;;;;;;;30.06;47.73145;938.2814;;;;
2020/08/11 13:55:27;;;;;;;2.4;1.4;;;;;;;29.64;48.49902;938.2531;;;;
2020/08/11 13:57:52;;;;;;;2;0.9;;;;;;;29.59;49.18457;938.2193;;;;
2020/08/11 14:00:26;;;;;;;1.3;0.9;;;;;;;29.7;48.0166;938.1736;;;;
2020/08/11 14:02:55;;;;;;;1.2;0.9;;;;;;;29.87;49.17871;938.1948;;;;
2020/08/11 14:05:26;;;;;;;1.7;1.1;;;;;;;29.95;50.28516;938.1569;;;;
2020/08/11 14:07:51;;;;;;;1.8;1;;;;;;;29.98;49.03613;938.1614;;;;
2020/08/11 14:10:18;;;;;;;0.8;0.8;;;;;;;30.12;48.9082;938.1433;;;;
2020/08/11 14:12:43;;;;;;;1.5;1.2;;;;;;;30.3;48.30664;938.0449;;;;
2020/08/11 14:15:12;;;;;;;1.4;1.1;;;;;;;30.35;46.59277;938.1127;;;;
2020/08/11 14:17:37;;;;;;;1.6;1.1;;;;;;;30.49;48.0293;938.1533;;;;
2020/08/11 14:20:02;;;;;;;1.8;1.4;;;;;;;30.4;45.16504;938.1494;;;;